Terminal Aerodrome Forecast
Issued by NWS Cleveland, OH

Home | Current Version | Previous Version | Graphics & Text | Print | Product List | Glossary On
Versions: 1 2 3 4 5 6 7 8 9 10 11 12 13 14 15 16
060
FTUS41 KCLE 201120
TAFERI
TAF
KERI 201120Z 2012/2112 19004KT P6SM BKN250
     FM201500 33005KT P6SM BKN250
     FM210000 VRB03KT P6SM SKC=

USA.gov is the U.S. government's official web portal to all federal, state and local government web resources and services.